Time;durP1;ratioP1;P1;durP2;ratioP2;P2;SDS_P1;SDS_P2;PMS_P1;PMS_P2;Temp;Humidity;BMP_temperature;BMP_pressure;BME280_temperature;BME280_humidity;BME280_pressure;Samples;Min_cycle;Max_cycle;Signal;HPM_P1;HPM_P2
2022/05/06 00:02:55;;;;;;;5.88;4.72;;;;;;;11.40;54.97;101222.66;8613038;33;20683;-72
2022/05/06 00:08:00;;;;;;;7.20;4.95;;;;;;;11.38;54.54;101219.22;8612986;33;20652;-72
2022/05/06 00:13:03;;;;;;;7.50;4.45;;;;;;;11.27;55.09;101218.16;8612674;33;20309;-72
2022/05/06 00:18:06;;;;;;;7.07;4.75;;;;;;;10.78;56.09;101226.94;8611923;33;20663;-72
2022/05/06 00:23:12;;;;;;;7.05;4.35;;;;;;;9.79;59.22;101226.34;8604245;33;20150;-73
2022/05/06 00:28:15;;;;;;;7.13;5.10;;;;;;;10.21;59.06;101224.50;8608987;33;21369;-72
2022/05/06 00:33:22;;;;;;;6.88;4.40;;;;;;;10.56;58.05;101230.22;8607452;33;20636;-73
2022/05/06 00:38:27;;;;;;;5.15;4.65;;;;;;;10.78;57.17;101232.31;8583189;33;20209;-73
2022/05/06 00:43:31;;;;;;;8.00;5.57;;;;;;;10.80;56.99;101226.81;8582319;33;20155;-73
2022/05/06 00:48:34;;;;;;;8.32;4.85;;;;;;;10.86;56.80;101231.78;8609261;33;20949;-72
2022/05/06 00:53:40;;;;;;;6.82;4.35;;;;;;;10.73;56.90;101237.13;8601659;33;20306;-72
2022/05/06 00:58:46;;;;;;;8.20;4.68;;;;;;;10.52;57.44;101233.19;8613129;33;21022;-73
2022/05/06 01:03:49;;;;;;;6.93;4.93;;;;;;;10.53;57.81;101238.47;8601292;33;20600;-72
2022/05/06 01:08:54;;;;;;;6.38;4.63;;;;;;;10.46;57.72;101244.38;8609326;33;20786;-73
2022/05/06 01:13:57;;;;;;;7.22;5.15;;;;;;;10.12;58.81;101238.53;8592125;33;20291;-73
2022/05/06 01:19:06;;;;;;;9.45;4.85;;;;;;;9.77;59.94;101246.16;8568850;33;20178;-73
2022/05/06 01:24:11;;;;;;;7.20;4.70;;;;;;;9.54;60.98;101244.94;8578703;33;20993;-72
2022/05/06 01:29:16;;;;;;;7.25;4.78;;;;;;;9.59;60.59;101242.81;8597545;33;20677;-72
2022/05/06 01:34:21;;;;;;;5.72;4.15;;;;;;;9.63;60.72;101242.53;8598584;33;20438;-73
2022/05/06 01:39:31;;;;;;;5.88;4.75;;;;;;;9.73;60.45;101245.50;8555857;33;20168;-72
2022/05/06 01:44:39;;;;;;;6.47;4.75;;;;;;;9.91;59.95;101244.34;8559143;33;20148;-73
2022/05/06 01:49:47;;;;;;;8.98;4.95;;;;;;;9.96;59.83;101251.25;8565146;33;20444;-73
2022/05/06 01:54:52;;;;;;;8.32;5.00;;;;;;;9.69;60.17;101249.34;8576504;33;20196;-72
2022/05/06 01:59:56;;;;;;;6.53;4.78;;;;;;;9.00;62.15;101261.66;8614823;33;20565;-72
2022/05/06 02:05:19;;;;;;;7.68;5.45;;;;;;;9.30;62.31;101256.25;8609140;33;20159;-72
2022/05/06 02:10:28;;;;;;;8.07;5.03;;;;;;;9.17;61.98;101257.97;8611135;33;20542;-72
2022/05/06 02:15:35;;;;;;;8.13;5.30;;;;;;;8.84;63.57;101248.31;8621212;33;20405;-72
2022/05/06 02:20:44;;;;;;;7.95;5.55;;;;;;;8.95;63.42;101261.94;8624726;33;20458;-73
2022/05/06 02:26:09;;;;;;;7.47;4.72;;;;;;;8.76;63.58;101254.16;8596384;33;20467;-73
2022/05/06 02:36:46;;;;;;;8.63;5.00;;;;;;;9.18;61.99;101254.31;8579639;33;20481;-72
2022/05/06 02:41:56;;;;;;;9.35;6.07;;;;;;;9.07;62.49;101252.28;8596790;33;20845;-73
2022/05/06 02:47:01;;;;;;;10.50;6.28;;;;;;;8.94;62.93;101251.31;8549699;33;20148;-72
2022/05/06 02:52:06;;;;;;;9.73;5.97;;;;;;;8.98;62.76;101248.34;8579683;33;20144;-72
2022/05/06 02:57:11;;;;;;;10.38;6.03;;;;;;;8.98;62.12;101247.50;8584545;33;20431;-72
2022/05/06 03:02:16;;;;;;;7.85;5.50;;;;;;;8.96;62.42;101252.06;8616457;33;20425;-72
2022/05/06 03:07:22;;;;;;;8.18;5.20;;;;;;;8.94;62.32;101248.63;8576594;33;20599;-72
2022/05/06 03:12:30;;;;;;;10.35;5.55;;;;;;;8.86;62.82;101245.53;8612703;33;20479;-73
2022/05/06 03:17:40;;;;;;;9.68;5.88;;;;;;;9.04;62.06;101242.63;8587283;33;20143;-72
2022/05/06 03:22:46;;;;;;;7.80;5.30;;;;;;;8.99;62.21;101246.53;8576696;33;20447;-73
2022/05/06 03:28:01;;;;;;;9.45;5.45;;;;;;;8.98;61.76;101247.50;8554246;33;20415;-73
2022/05/06 03:33:05;;;;;;;9.75;5.63;;;;;;;8.99;62.21;101243.84;8588155;33;20417;-73
2022/05/06 03:38:13;;;;;;;6.18;4.80;;;;;;;8.95;62.05;101243.19;8581102;28;20519;-75
2022/05/06 03:43:21;;;;;;;6.72;5.20;;;;;;;8.68;62.02;101244.84;8632208;33;20411;-73
2022/05/06 03:48:26;;;;;;;7.82;5.05;;;;;;;8.47;62.98;101239.78;8628396;33;20515;-73
2022/05/06 03:53:34;;;;;;;7.30;4.82;;;;;;;8.38;62.61;101246.50;8618478;33;20158;-75
2022/05/06 03:58:39;;;;;;;6.15;4.68;;;;;;;8.31;63.23;101241.59;8600956;33;20439;-75
2022/05/06 04:03:46;;;;;;;6.53;4.38;;;;;;;8.31;63.24;101244.28;8609620;33;20413;-75
2022/05/06 04:08:50;;;;;;;7.80;4.90;;;;;;;8.28;63.75;101240.00;8609964;33;20925;-75
2022/05/06 04:13:56;;;;;;;8.07;5.88;;;;;;;8.59;62.86;101254.28;8610787;33;20449;-75
2022/05/06 04:19:00;;;;;;;8.15;5.05;;;;;;;8.71;62.31;101256.22;8580300;33;20569;-75
2022/05/06 04:24:06;;;;;;;6.63;5.00;;;;;;;8.54;61.94;101251.88;8596958;33;20639;-74
2022/05/06 04:29:12;;;;;;;7.82;4.75;;;;;;;8.31;62.59;101261.22;8609773;33;20969;-74
2022/05/06 04:34:21;;;;;;;6.80;4.30;;;;;;;8.34;62.60;101265.53;8607691;33;20470;-75
2022/05/06 04:39:25;;;;;;;7.55;5.30;;;;;;;8.35;62.37;101269.94;8636573;33;20166;-74
2022/05/06 04:44:31;;;;;;;8.48;5.20;;;;;;;8.39;62.68;101275.03;8602722;33;20147;-75
2022/05/06 04:49:34;;;;;;;8.93;4.68;;;;;;;8.70;62.60;101277.75;8615874;33;20406;-76
2022/05/06 04:54:37;;;;;;;9.55;4.70;;;;;;;8.65;62.08;101277.16;8617633;33;20416;-75
2022/05/06 04:59:47;;;;;;;8.52;5.25;;;;;;;8.70;61.51;101277.75;8616117;33;20453;-75
2022/05/06 05:04:56;;;;;;;7.03;5.18;;;;;;;8.70;61.58;101286.66;8615668;33;20514;-75
2022/05/06 05:10:01;;;;;;;8.25;5.25;;;;;;;8.84;61.90;101299.25;8603914;33;20430;-75
2022/05/06 05:15:07;;;;;;;7.82;4.97;;;;;;;8.77;61.93;101297.88;8615211;33;20473;-75
2022/05/06 05:20:14;;;;;;;6.38;4.72;;;;;;;8.94;60.97;101299.53;8613346;33;20937;-73
2022/05/06 05:25:18;;;;;;;6.32;4.32;;;;;;;8.83;61.29;101295.69;8609853;33;20405;-75
2022/05/06 05:30:23;;;;;;;7.05;5.15;;;;;;;8.99;61.91;101305.50;8630494;33;21264;-75
2022/05/06 05:35:29;;;;;;;6.70;4.47;;;;;;;9.17;61.50;101301.72;8603283;33;20778;-74
2022/05/06 05:40:36;;;;;;;8.25;4.60;;;;;;;9.27;61.39;101300.19;8604477;33;20535;-75
2022/05/06 05:51:04;;;;;;;6.97;4.35;;;;;;;9.47;61.93;101307.00;8605749;33;20150;-75
2022/05/06 05:56:24;;;;;;;7.90;4.22;;;;;;;9.61;62.08;101314.19;8590772;33;20305;-74
2022/05/06 06:01:29;;;;;;;8.68;5.15;;;;;;;9.78;63.14;101305.09;8603984;33;20147;-74
2022/05/06 06:06:37;;;;;;;7.28;5.13;;;;;;;10.07;63.39;101305.09;8601403;33;20150;-74
2022/05/06 06:11:41;;;;;;;5.93;4.55;;;;;;;10.28;62.27;101310.88;8602936;33;20433;-74
2022/05/06 06:16:50;;;;;;;6.40;4.28;;;;;;;10.48;59.60;101314.97;8591528;33;20418;-74
2022/05/06 06:21:54;;;;;;;7.90;4.45;;;;;;;10.91;59.06;101306.72;8592934;33;20238;-75
2022/05/06 06:27:02;;;;;;;5.30;3.17;;;;;;;11.37;59.06;101314.34;8616940;33;20412;-74
2022/05/06 06:32:08;;;;;;;6.53;4.57;;;;;;;11.98;57.46;101309.97;8619109;33;20153;-74
2022/05/06 06:37:13;;;;;;;5.63;3.97;;;;;;;12.07;56.41;101303.09;8607316;33;20147;-74
2022/05/06 06:42:22;;;;;;;10.32;5.25;;;;;;;12.32;56.01;101307.56;8609067;33;20146;-75
2022/05/06 06:47:41;;;;;;;8.70;3.92;;;;;;;12.62;55.54;101309.81;8591309;33;20436;-75
2022/05/06 06:52:51;;;;;;;6.80;4.30;;;;;;;12.47;55.50;101311.78;8606523;33;20889;-74
2022/05/06 06:57:54;;;;;;;7.22;4.20;;;;;;;12.65;55.03;101312.25;8631869;33;20634;-74
2022/05/06 07:02:58;;;;;;;6.35;4.10;;;;;;;13.09;54.86;101315.25;8629253;33;21031;-75
2022/05/06 07:13:36;;;;;;;7.75;5.28;;;;;;;13.82;51.48;101314.91;8616862;33;20207;-74
2022/05/06 07:18:40;;;;;;;9.07;4.85;;;;;;;13.94;50.95;101316.59;8639731;33;20151;-74
2022/05/06 07:23:43;;;;;;;8.15;5.07;;;;;;;14.37;51.68;101320.34;8635748;33;20424;-76
2022/05/06 07:28:46;;;;;;;7.55;5.78;;;;;;;14.64;50.87;101325.34;8627735;33;21062;-76
2022/05/06 07:33:51;;;;;;;8.48;5.22;;;;;;;14.93;50.61;101320.19;8627752;33;20417;-76
2022/05/06 07:38:54;;;;;;;9.98;6.43;;;;;;;15.30;49.87;101324.28;8599670;33;20681;-76
2022/05/06 07:43:57;;;;;;;7.63;5.38;;;;;;;15.73;48.79;101326.00;8603366;33;20163;-76
2022/05/06 07:49:03;;;;;;;8.55;6.00;;;;;;;15.68;47.46;101313.72;8616843;33;21011;-76
2022/05/06 07:54:06;;;;;;;9.57;5.55;;;;;;;16.20;47.76;101315.47;8585627;33;20253;-76
2022/05/06 07:59:09;;;;;;;9.38;5.63;;;;;;;16.42;48.05;101317.13;8576797;33;20243;-76
2022/05/06 08:09:34;;;;;;;7.95;4.80;;;;;;;17.18;43.21;101311.91;8573318;33;20650;-76
2022/05/06 08:14:38;;;;;;;8.63;5.47;;;;;;;17.10;46.12;101309.88;8583089;33;20547;-76
2022/05/06 08:19:43;;;;;;;8.70;5.38;;;;;;;17.27;43.20;101308.31;8582240;33;20516;-75
2022/05/06 08:24:46;;;;;;;6.90;4.78;;;;;;;17.63;42.83;101311.19;8579021;33;20136;-76
2022/05/06 08:30:12;;;;;;;9.30;5.30;;;;;;;17.33;41.00;101304.13;8593197;33;20140;-75
2022/05/06 08:35:16;;;;;;;8.18;4.70;;;;;;;;;;8620461;33;20154;-76
2022/05/06 08:40:21;;;;;;;8.32;5.05;;;;;;;18.43;38.91;101296.09;8618174;33;21162;-76
2022/05/06 08:50:53;;;;;;;8.07;5.38;;;;;;;19.29;36.55;101316.47;8655754;33;20438;-77
2022/05/06 08:55:58;;;;;;;6.88;4.82;;;;;;;19.05;38.02;101308.94;8640197;33;20419;-76
2022/05/06 09:01:05;;;;;;;7.28;5.35;;;;;;;18.80;37.72;101297.84;8649081;33;20425;-76
2022/05/06 09:06:21;;;;;;;6.97;5.18;;;;;;;19.32;37.59;101307.97;8636661;33;20650;-76
2022/05/06 09:16:47;;;;;;;9.45;5.45;;;;;;;18.70;37.54;101294.31;8633000;33;20535;-76
2022/05/06 09:22:05;;;;;;;9.90;5.47;;;;;;;19.50;36.56;101305.19;8634072;33;20431;-76
2022/05/06 09:27:10;;;;;;;14.43;5.85;;;;;;;19.14;36.85;101305.28;8624674;33;20459;-75
2022/05/06 09:32:18;;;;;;;11.93;5.82;;;;;;;19.45;37.14;101306.53;8635209;33;20693;-75
2022/05/06 09:37:35;;;;;;;9.98;6.25;;;;;;;18.98;35.89;101298.69;8634337;33;20511;-76
2022/05/06 09:42:41;;;;;;;11.27;6.20;;;;;;;20.05;34.93;101292.06;8632073;28;20438;-75
2022/05/06 09:47:44;;;;;;;9.30;5.43;;;;;;;20.17;35.68;101297.19;8611807;33;20187;-75
2022/05/06 09:53:00;;;;;;;9.60;5.85;;;;;;;20.39;37.12;101291.16;8607484;33;20633;-75
2022/05/06 09:58:03;;;;;;;10.10;6.13;;;;;;;20.77;34.51;101291.56;8575613;33;20464;-75
2022/05/06 10:03:08;;;;;;;8.55;6.18;;;;;;;20.86;35.71;101282.34;8602498;33;20349;-74
2022/05/06 10:08:17;;;;;;;9.35;6.07;;;;;;;20.94;33.32;101284.22;8621637;33;20250;-76
2022/05/06 10:13:23;;;;;;;10.55;6.25;;;;;;;21.00;33.19;101278.06;8604219;33;20913;-74
2022/05/06 10:18:34;;;;;;;9.00;5.80;;;;;;;20.85;35.67;101269.72;8583157;33;21003;-76
2022/05/06 10:23:51;;;;;;;8.40;5.65;;;;;;;20.00;34.83;101283.50;8608277;33;20155;-75
2022/05/06 10:34:27;;;;;;;9.75;6.10;;;;;;;21.16;33.27;101261.69;8489529;33;20992;-76
2022/05/06 10:39:37;;;;;;;8.13;5.20;;;;;;;21.25;32.84;101253.47;8582899;33;20513;-76
2022/05/06 10:44:42;;;;;;;10.60;5.47;;;;;;;22.47;32.47;101253.00;8598563;33;20208;-75
2022/05/06 10:49:50;;;;;;;7.97;4.78;;;;;;;21.34;34.16;101250.56;8601288;33;20143;-76
2022/05/06 10:54:59;;;;;;;8.40;5.50;;;;;;;20.35;36.31;101251.59;8612055;33;20626;-75
2022/05/06 11:00:07;;;;;;;7.40;4.80;;;;;;;20.24;34.66;101250.00;8620442;33;20525;-75
2022/05/06 11:05:15;;;;;;;5.18;4.32;;;;;;;22.06;32.38;101245.03;8603348;33;20930;-76
2022/05/06 11:10:23;;;;;;;6.03;3.80;;;;;;;22.92;32.32;101239.47;8564532;33;20529;-76
2022/05/06 11:15:30;;;;;;;8.50;5.13;;;;;;;21.93;32.43;101242.00;8642461;33;21155;-78
2022/05/06 11:20:35;;;;;;;5.23;4.10;;;;;;;23.20;31.64;101245.22;8599226;33;20459;-78
2022/05/06 11:25:44;;;;;;;7.63;4.90;;;;;;;24.54;30.29;101229.47;8616492;33;21251;-78
2022/05/06 11:30:49;;;;;;;6.25;4.75;;;;;;;24.29;29.14;101220.72;8656279;33;20159;-76
2022/05/06 11:35:53;;;;;;;7.65;4.05;;;;;;;24.17;29.85;101225.03;8648707;32;20139;-78
2022/05/06 11:41:07;;;;;;;6.32;4.30;;;;;;;22.64;30.30;101229.09;8596156;33;20400;-77
2022/05/06 11:51:40;;;;;;;5.72;4.55;;;;;;;23.35;31.42;101213.19;8620876;33;20941;-78
2022/05/06 11:56:45;;;;;;;7.75;4.80;;;;;;;25.41;29.53;101200.78;8584523;33;20160;-78
2022/05/06 12:01:48;;;;;;;6.53;5.03;;;;;;;24.60;28.75;101194.84;8592179;33;20434;-75
2022/05/06 12:06:51;;;;;;;6.40;4.65;;;;;;;22.49;31.59;101204.41;8615017;33;20429;-75
2022/05/06 12:12:08;;;;;;;6.97;4.70;;;;;;;21.78;31.91;101192.69;8648149;33;20397;-75
2022/05/06 12:17:13;;;;;;;6.85;4.25;;;;;;;22.50;32.55;101205.25;8645164;33;20426;-75
2022/05/06 12:22:23;;;;;;;5.38;4.60;;;;;;;23.69;29.30;101195.28;8603498;33;20148;-75
2022/05/06 12:27:29;;;;;;;5.53;4.10;;;;;;;24.06;30.90;101185.22;8638255;33;21032;-75
2022/05/06 12:32:33;;;;;;;7.60;4.95;;;;;;;23.78;31.11;101187.84;8651405;33;20406;-76
2022/05/06 12:37:36;;;;;;;8.23;5.35;;;;;;;24.51;30.78;101177.69;8650029;33;20164;-76
2022/05/06 12:42:41;;;;;;;9.47;5.27;;;;;;;24.64;30.72;101182.44;8619834;33;20422;-74
2022/05/06 12:53:27;;;;;;;6.22;5.13;;;;;;;23.23;31.82;101181.84;8610339;33;20286;-76
2022/05/06 12:58:32;;;;;;;8.73;6.18;;;;;;;22.44;33.12;101176.72;8590377;33;20152;-75
2022/05/06 13:03:35;;;;;;;8.48;6.10;;;;;;;21.41;34.07;101183.25;8610194;33;20364;-76
2022/05/06 13:08:38;;;;;;;8.80;6.18;;;;;;;22.52;33.46;101170.34;8624037;33;20140;-76
2022/05/06 13:13:42;;;;;;;7.80;5.88;;;;;;;22.50;32.82;101166.94;8617536;33;20155;-76
2022/05/06 13:18:45;;;;;;;6.72;5.45;;;;;;;25.71;30.06;101154.63;8624949;33;21033;-77
2022/05/06 13:23:48;;;;;;;11.10;6.07;;;;;;;26.17;29.41;101158.56;8628774;33;20965;-77
2022/05/06 13:28:53;;;;;;;8.25;6.10;;;;;;;25.30;27.94;101149.09;8623384;33;20409;-77
2022/05/06 13:33:56;;;;;;;8.02;5.45;;;;;;;25.41;28.38;101148.53;8632034;33;20242;-76
2022/05/06 13:38:59;;;;;;;8.45;5.30;;;;;;;23.34;30.77;101158.56;8618918;33;20143;-76
2022/05/06 13:44:04;;;;;;;6.45;4.90;;;;;;;22.39;32.72;101156.41;8629299;33;20483;-75
2022/05/06 13:49:07;;;;;;;7.72;5.20;;;;;;;21.21;34.44;101150.03;8620418;33;20434;-75
2022/05/06 13:54:10;;;;;;;6.43;5.03;;;;;;;21.83;35.14;101143.78;8632236;33;20479;-76
2022/05/06 13:59:15;;;;;;;9.27;5.78;;;;;;;22.84;33.82;101146.41;8601580;33;20436;-75
2022/05/06 14:04:18;;;;;;;7.18;5.88;;;;;;;23.25;31.63;101129.56;8609021;33;20594;-77
2022/05/06 14:09:40;;;;;;;6.38;5.05;;;;;;;24.00;31.32;101123.75;8624766;33;20611;-77
2022/05/06 14:14:45;;;;;;;7.85;5.75;;;;;;;23.84;31.81;101133.06;8616930;33;21215;-76
2022/05/06 14:19:48;;;;;;;7.30;4.88;;;;;;;25.52;29.59;101133.34;8602536;33;20557;-76
2022/05/06 14:24:51;;;;;;;8.43;4.93;;;;;;;24.57;30.24;101130.19;8619311;33;20387;-76
2022/05/06 14:29:56;;;;;;;9.13;5.30;;;;;;;25.10;29.70;101127.84;8619430;33;20238;-76
2022/05/06 14:35:16;;;;;;;6.80;5.20;;;;;;;22.86;31.63;101136.13;8630552;33;20433;-76
2022/05/06 14:40:21;;;;;;;7.45;5.43;;;;;;;22.01;33.81;101124.34;8600077;33;20147;-76
2022/05/06 14:45:26;;;;;;;6.93;5.10;;;;;;;22.77;34.59;101116.19;8609630;33;20193;-76
2022/05/06 14:50:29;;;;;;;8.48;6.10;;;;;;;22.76;32.61;101123.56;8618707;33;20294;-77
2022/05/06 14:55:32;;;;;;;7.80;5.40;;;;;;;22.69;33.62;101117.13;8604066;33;20151;-74
2022/05/06 15:00:38;;;;;;;9.95;6.28;;;;;;;22.59;33.89;101115.69;8649024;33;20422;-75
2022/05/06 15:05:41;;;;;;;9.70;6.93;;;;;;;21.71;32.57;101109.63;8594927;33;20892;-75
2022/05/06 15:10:44;;;;;;;9.40;6.63;;;;;;;21.63;32.92;101113.28;8596999;33;20663;-75
2022/05/06 15:15:48;;;;;;;9.55;6.18;;;;;;;22.43;33.54;101111.19;8599610;33;20152;-74
2022/05/06 15:20:51;;;;;;;10.00;5.85;;;;;;;23.06;32.33;101109.03;8586771;33;20535;-75
2022/05/06 15:25:54;;;;;;;8.60;6.50;;;;;;;23.65;32.22;101108.97;8603438;33;20424;-75
2022/05/06 15:30:59;;;;;;;9.70;5.82;;;;;;;23.77;30.93;101106.59;8609828;33;20433;-75
2022/05/06 15:36:02;;;;;;;5.82;4.70;;;;;;;22.97;32.95;101097.31;8593734;33;20226;-75
2022/05/06 15:41:08;;;;;;;9.30;6.97;;;;;;;23.08;32.29;101105.06;8625893;33;20434;-74
2022/05/06 15:46:13;;;;;;;9.48;7.55;;;;;;;23.94;31.40;101099.81;8634539;33;20166;-74
2022/05/06 15:51:19;;;;;;;9.52;7.00;;;;;;;24.56;31.73;101098.28;8608236;33;20158;-74
2022/05/06 15:56:22;;;;;;;9.73;6.68;;;;;;;22.25;34.31;101098.69;8646054;33;20250;-75
2022/05/06 16:01:26;;;;;;;11.05;7.85;;;;;;;21.28;36.30;101100.97;8627002;33;20144;-75
2022/05/06 16:06:29;;;;;;;9.90;7.32;;;;;;;22.45;33.90;101095.47;8610992;33;20418;-74
2022/05/06 16:11:32;;;;;;;15.77;8.05;;;;;;;23.75;31.66;101086.72;8604084;33;20607;-75
2022/05/06 16:16:37;;;;;;;8.63;6.90;;;;;;;24.68;31.30;101082.97;8631281;33;20519;-75
2022/05/06 16:21:40;;;;;;;11.18;7.22;;;;;;;24.32;31.34;101083.91;8629252;33;20983;-75
2022/05/06 16:26:43;;;;;;;7.90;7.07;;;;;;;23.62;31.46;101071.81;8604394;33;20148;-74
2022/05/06 16:31:47;;;;;;;8.02;7.00;;;;;;;23.51;31.76;101080.56;8598315;33;20278;-74
2022/05/06 16:42:11;;;;;;;7.07;5.20;;;;;;;21.08;36.33;101072.38;8616405;33;20377;-74
2022/05/06 16:47:15;;;;;;;5.60;4.45;;;;;;;21.09;36.18;101063.16;8604919;33;20143;-74
2022/05/06 16:52:19;;;;;;;7.78;4.20;;;;;;;20.62;36.33;101066.69;8609455;33;20147;-74
2022/05/06 16:57:22;;;;;;;6.97;4.53;;;;;;;20.52;36.61;101065.00;8586722;33;20548;-74
2022/05/06 17:02:27;;;;;;;6.45;4.40;;;;;;;20.60;36.54;101069.59;8576858;33;20429;-73
2022/05/06 17:07:31;;;;;;;8.45;4.30;;;;;;;20.56;37.46;101070.97;8605116;33;20151;-75
2022/05/06 17:12:35;;;;;;;9.02;5.03;;;;;;;20.41;36.32;101068.09;8603171;33;20516;-74
2022/05/06 17:17:40;;;;;;;7.05;4.90;;;;;;;20.09;38.33;101069.78;8631368;33;20399;-74
2022/05/06 17:22:44;;;;;;;9.35;4.82;;;;;;;20.02;38.13;101071.50;8620534;33;20707;-75
2022/05/06 17:27:48;;;;;;;5.85;4.65;;;;;;;20.18;37.87;101065.16;8580748;33;20532;-75
2022/05/06 17:32:53;;;;;;;7.90;5.10;;;;;;;20.47;37.09;101069.28;8610915;33;20413;-75
2022/05/06 17:37:56;;;;;;;7.07;4.80;;;;;;;20.78;36.39;101069.38;8591725;33;20148;-74
2022/05/06 17:42:59;;;;;;;8.52;5.60;;;;;;;21.20;36.13;101062.75;8597391;33;20151;-74
2022/05/06 17:48:04;;;;;;;10.00;5.50;;;;;;;22.90;33.44;101058.00;8599483;33;20145;-74
2022/05/06 17:53:08;;;;;;;7.80;5.60;;;;;;;23.47;32.07;101061.94;8595891;33;20560;-75
2022/05/06 17:58:12;;;;;;;8.88;6.95;;;;;;;22.76;33.40;101055.09;8623683;33;20185;-74
2022/05/06 18:03:16;;;;;;;6.88;5.43;;;;;;;21.47;34.80;101055.97;8589022;33;20191;-73
2022/05/06 18:08:19;;;;;;;8.93;6.90;;;;;;;20.44;37.15;101065.03;8627341;33;20434;-75
2022/05/06 18:13:22;;;;;;;9.30;6.97;;;;;;;19.92;37.73;101062.63;8602734;33;20457;-75
2022/05/06 18:18:28;;;;;;;10.05;6.70;;;;;;;19.50;38.42;101062.69;8594677;33;20415;-75
2022/05/06 18:23:34;;;;;;;10.38;7.35;;;;;;;19.17;39.46;101070.75;8618978;33;20433;-75
2022/05/06 18:28:38;;;;;;;14.30;7.07;;;;;;;18.93;40.17;101064.19;8614347;33;20147;-75
2022/05/06 18:33:42;;;;;;;9.45;6.88;;;;;;;18.73;40.41;101060.84;8579371;33;20127;-75
2022/05/06 18:38:45;;;;;;;10.65;7.18;;;;;;;18.48;40.76;101067.97;8602998;33;20645;-75
2022/05/06 18:43:49;;;;;;;9.40;6.60;;;;;;;18.31;41.19;101075.16;8586783;33;21069;-75
2022/05/06 18:48:53;;;;;;;8.70;6.70;;;;;;;18.35;41.43;101068.41;8609038;33;20242;-75
2022/05/06 18:54:00;;;;;;;10.10;6.80;;;;;;;18.25;41.90;101075.78;8628981;33;20919;-75
2022/05/06 18:59:04;;;;;;;9.85;6.32;;;;;;;18.19;42.38;101081.88;8578716;33;20442;-75
2022/05/06 19:04:09;;;;;;;9.68;6.85;;;;;;;18.08;43.36;101084.84;8611933;33;21009;-74
2022/05/06 19:09:12;;;;;;;8.10;5.57;;;;;;;17.99;44.74;101078.50;8567406;33;20202;-75
2022/05/06 19:14:15;;;;;;;10.10;6.03;;;;;;;17.81;45.31;101089.31;8581620;33;20148;-75
2022/05/06 19:19:19;;;;;;;10.10;6.38;;;;;;;17.64;45.16;101085.56;8600591;33;20237;-75
2022/05/06 19:29:43;;;;;;;13.05;8.70;;;;;;;17.16;44.57;101097.56;8605879;33;20487;-75
2022/05/06 19:34:49;;;;;;;11.20;7.80;;;;;;;16.94;45.09;101106.91;8624990;33;20201;-75
2022/05/06 19:39:52;;;;;;;13.45;7.18;;;;;;;16.84;45.44;101106.13;8612373;33;20127;-75
2022/05/06 19:44:55;;;;;;;11.70;8.15;;;;;;;16.84;45.63;101111.53;8592398;33;20151;-75
2022/05/06 19:50:00;;;;;;;14.05;9.45;;;;;;;16.89;45.24;101109.22;8603434;33;20407;-74
2022/05/06 19:55:06;;;;;;;13.63;9.32;;;;;;;16.92;45.18;101110.78;8635659;33;20449;-74
2022/05/06 20:00:12;;;;;;;15.88;9.45;;;;;;;16.98;44.93;101105.63;8602769;33;20419;-76
2022/05/06 20:05:18;;;;;;;16.25;10.15;;;;;;;17.08;44.74;101102.84;8585120;33;20414;-75
2022/05/06 20:10:21;;;;;;;15.57;9.85;;;;;;;17.08;44.98;101096.56;8609616;33;20426;-74
2022/05/06 20:15:25;;;;;;;15.10;10.07;;;;;;;16.89;45.19;101106.50;8629696;33;21059;-74
2022/05/06 20:20:30;;;;;;;14.85;9.65;;;;;;;16.75;45.46;101104.25;8628534;33;20159;-75
2022/05/06 20:25:33;;;;;;;14.52;10.70;;;;;;;16.59;45.59;101110.28;8629189;33;20159;-74
2022/05/06 20:30:36;;;;;;;16.67;10.80;;;;;;;16.45;46.25;101108.03;8623648;33;20154;-75
2022/05/06 20:35:41;;;;;;;14.85;9.68;;;;;;;16.36;46.23;101107.06;8617761;33;20193;-74
2022/05/06 20:40:44;;;;;;;16.23;10.63;;;;;;;16.25;46.72;101104.47;8596171;33;20444;-75
2022/05/06 20:45:47;;;;;;;13.90;9.52;;;;;;;16.09;47.23;101099.63;8606024;33;20824;-74
2022/05/06 20:50:52;;;;;;;17.45;10.25;;;;;;;15.98;47.42;101099.78;8595784;33;20997;-75
2022/05/06 20:55:55;;;;;;;13.73;9.85;;;;;;;15.91;48.00;101096.78;8624507;33;20144;-75
2022/05/06 21:00:59;;;;;;;14.48;9.93;;;;;;;15.59;48.90;101088.91;8605789;33;20845;-74
2022/05/06 21:06:04;;;;;;;18.40;10.65;;;;;;;15.53;48.85;101093.03;8620951;33;20160;-75
2022/05/06 21:16:28;;;;;;;13.38;9.43;;;;;;;14.94;51.05;101097.34;8599118;33;20179;-74
2022/05/06 21:21:33;;;;;;;13.52;9.82;;;;;;;14.89;51.73;101083.41;8584136;33;20151;-74
2022/05/06 21:26:36;;;;;;;15.63;9.52;;;;;;;15.02;51.54;101092.13;8579653;33;20124;-75
2022/05/06 21:31:39;;;;;;;13.55;10.52;;;;;;;15.30;50.76;101080.69;8630858;33;20601;-75
2022/05/06 21:36:43;;;;;;;16.27;10.02;;;;;;;15.20;50.81;101086.09;8611285;33;20245;-75
2022/05/06 21:41:46;;;;;;;14.90;10.05;;;;;;;15.33;51.14;101075.88;8618342;33;20452;-75
2022/05/06 21:46:50;;;;;;;17.33;11.30;;;;;;;15.17;51.91;101078.25;8629325;33;20408;-75
2022/05/06 21:51:55;;;;;;;14.88;10.95;;;;;;;15.12;52.97;101075.94;8610393;33;20188;-75
2022/05/06 21:56:59;;;;;;;18.60;12.60;;;;;;;15.05;52.64;101081.03;8626134;33;20242;-75
2022/05/06 22:02:02;;;;;;;19.17;12.10;;;;;;;15.08;52.93;101082.59;8625371;33;20154;-75
2022/05/06 22:07:08;;;;;;;18.55;12.45;;;;;;;15.05;52.89;101082.88;8628505;33;20158;-75
2022/05/06 22:12:11;;;;;;;18.00;12.32;;;;;;;14.86;53.31;101075.53;8619137;33;20170;-75
2022/05/06 22:17:14;;;;;;;18.27;11.20;;;;;;;14.49;54.05;101084.19;8623744;33;20902;-75
2022/05/06 22:22:19;;;;;;;15.32;11.05;;;;;;;14.59;54.08;101084.25;8618707;33;20867;-75
2022/05/06 22:27:22;;;;;;;16.52;11.20;;;;;;;14.67;54.07;101089.81;8612882;33;20470;-75
2022/05/06 22:32:26;;;;;;;15.68;10.80;;;;;;;14.72;54.05;101081.31;8591505;33;20434;-75
2022/05/06 22:37:37;;;;;;;16.33;11.45;;;;;;;14.69;53.81;101084.28;8633010;33;20224;-75
2022/05/06 22:48:01;;;;;;;16.02;11.50;;;;;;;14.41;54.54;101080.44;8617455;33;20436;-75
2022/05/06 22:53:06;;;;;;;20.15;12.02;;;;;;;14.28;55.06;101086.00;8575380;33;21091;-76
2022/05/06 22:58:09;;;;;;;18.67;13.93;;;;;;;14.20;55.38;101088.50;8582251;33;20159;-76
2022/05/06 23:03:12;;;;;;;16.85;12.52;;;;;;;14.07;55.10;101083.25;8606861;27;20489;-72
2022/05/06 23:08:17;;;;;;;17.63;12.65;;;;;;;14.05;55.62;101079.84;8584978;33;20164;-72
2022/05/06 23:13:20;;;;;;;18.45;13.23;;;;;;;14.02;55.20;101091.78;8600521;33;20512;-71
2022/05/06 23:18:23;;;;;;;14.40;10.82;;;;;;;13.49;56.37;101086.28;8598455;33;20603;-72
2022/05/06 23:23:28;;;;;;;16.02;11.70;;;;;;;13.09;57.99;101084.13;8604718;33;20447;-71
2022/05/06 23:28:32;;;;;;;17.95;13.23;;;;;;;13.15;58.55;101077.38;8608708;33;20599;-71
2022/05/06 23:33:35;;;;;;;15.75;11.35;;;;;;;13.37;58.01;101085.47;8601108;33;21004;-72
2022/05/06 23:38:39;;;;;;;15.65;12.10;;;;;;;13.44;57.60;101083.16;8611577;33;20238;-72
2022/05/06 23:43:42;;;;;;;19.20;12.65;;;;;;;13.42;57.93;101087.81;8602543;33;20512;-71
2022/05/06 23:48:46;;;;;;;16.15;12.10;;;;;;;13.49;57.46;101083.59;8615816;33;20509;-71
2022/05/06 23:53:50;;;;;;;16.90;11.88;;;;;;;13.55;57.53;101083.13;8609092;33;20645;-71
2022/05/06 23:58:53;;;;;;;18.75;12.63;;;;;;;13.54;57.28;101080.53;8583280;33;20433;-72
